createdAt,value
2023-03-14T00:01:16.162Z,12.60
2023-03-14T00:03:37.905Z,12.56
2023-03-14T00:06:04.495Z,12.50
2023-03-14T00:08:26.093Z,12.45
2023-03-14T00:10:47.900Z,12.41
2023-03-14T00:13:10.329Z,12.38
2023-03-14T00:15:35.052Z,12.36
2023-03-14T00:17:57.082Z,12.32
2023-03-14T00:20:19.003Z,12.35
2023-03-14T00:22:42.207Z,12.32
2023-03-14T00:25:05.717Z,12.32
2023-03-14T00:27:27.612Z,12.30
2023-03-14T00:29:49.239Z,12.32
2023-03-14T00:32:11.060Z,12.29
2023-03-14T00:34:35.414Z,12.26
2023-03-14T00:36:56.994Z,12.23
2023-03-14T00:39:18.649Z,12.22
2023-03-14T00:41:40.193Z,12.18
2023-03-14T00:44:01.857Z,12.17
2023-03-14T00:46:23.745Z,12.14
2023-03-14T00:48:47.027Z,12.12
2023-03-14T00:51:10.092Z,12.09
2023-03-14T00:53:31.982Z,12.06
2023-03-14T00:55:53.698Z,12.07
2023-03-14T00:58:18.405Z,12.04
2023-03-14T01:00:40.948Z,12.00
2023-03-14T01:03:03.358Z,11.99
2023-03-14T01:05:25.522Z,12.01
2023-03-14T01:07:47.124Z,12.01
2023-03-14T01:10:09.999Z,11.97
2023-03-14T01:12:33.643Z,12.00
2023-03-14T01:14:55.272Z,12.00
2023-03-14T01:17:16.842Z,11.97
2023-03-14T01:19:38.515Z,11.97
2023-03-14T01:22:00.170Z,12.02
2023-03-14T01:24:21.855Z,11.96
2023-03-14T01:26:43.599Z,11.96
2023-03-14T01:29:05.531Z,11.96
2023-03-14T01:31:30.641Z,11.97
2023-03-14T01:33:52.897Z,11.96
2023-03-14T01:36:15.449Z,11.99
2023-03-14T01:38:40.729Z,11.99
2023-03-14T01:41:05.495Z,11.95
2023-03-14T01:43:28.397Z,11.96
2023-03-14T01:45:59.328Z,12.01
2023-03-14T01:48:21.217Z,11.95
2023-03-14T01:50:43.153Z,11.96
2023-03-14T01:53:05.078Z,11.95
2023-03-14T01:55:26.830Z,11.86
2023-03-14T01:58:06.041Z,11.87
2023-03-14T02:00:28.013Z,11.85
2023-03-14T02:02:56.674Z,11.86
2023-03-14T02:05:28.405Z,11.87
2023-03-14T02:08:00.830Z,11.85
2023-03-14T02:10:33.433Z,11.86
2023-03-14T02:13:01.734Z,11.80
2023-03-14T02:15:34.274Z,11.77
2023-03-14T02:18:04.873Z,11.77
2023-03-14T02:21:13.313Z,11.75
2023-03-14T02:23:57.734Z,11.73
2023-03-14T02:26:36.368Z,11.73
2023-03-14T02:28:58.892Z,11.75
2023-03-14T02:31:22.660Z,11.72
2023-03-14T02:33:45.350Z,11.74
2023-03-14T02:36:14.416Z,11.76
2023-03-14T02:38:49.144Z,11.76
2023-03-14T02:41:11.160Z,11.77
2023-03-14T02:43:38.387Z,11.75
2023-03-14T02:46:07.043Z,11.75
2023-03-14T02:48:48.811Z,11.76
2023-03-14T02:51:13.186Z,11.76
2023-03-14T02:53:38.290Z,11.76
2023-03-14T02:56:06.282Z,11.75
2023-03-14T02:58:31.310Z,11.76
2023-03-14T03:01:01.072Z,11.78
2023-03-14T03:03:23.262Z,11.81
2023-03-14T03:05:53.543Z,11.82
2023-03-14T03:08:15.190Z,11.77
2023-03-14T03:10:37.646Z,11.79
2023-03-14T03:12:59.809Z,11.79
2023-03-14T03:15:23.587Z,11.81
2023-03-14T03:17:45.870Z,11.75
2023-03-14T03:20:10.159Z,11.71
2023-03-14T03:22:31.895Z,11.69
2023-03-14T03:24:53.472Z,11.66
2023-03-14T03:27:15.036Z,11.62
2023-03-14T03:29:36.722Z,11.61
2023-03-14T03:31:58.707Z,11.60
2023-03-14T03:34:20.791Z,11.59
2023-03-14T03:36:45.746Z,11.62
2023-03-14T03:39:08.590Z,11.64
2023-03-14T03:41:31.523Z,11.61
2023-03-14T03:43:55.123Z,11.60
2023-03-14T03:46:17.032Z,11.59
2023-03-14T03:48:39.582Z,11.61
2023-03-14T03:51:01.992Z,11.61
2023-03-14T03:53:33.307Z,11.57
2023-03-14T03:55:59.189Z,11.56
2023-03-14T03:58:21.015Z,11.53
2023-03-14T04:00:42.658Z,11.51
2023-03-14T04:03:04.455Z,11.46
2023-03-14T04:05:26.211Z,11.44
2023-03-14T04:07:56.364Z,11.46
2023-03-14T04:10:21.327Z,11.47
2023-03-14T04:12:57.130Z,11.46
2023-03-14T04:15:22.101Z,11.45
2023-03-14T04:17:47.309Z,11.42
2023-03-14T04:20:14.318Z,11.40
2023-03-14T04:22:36.315Z,11.39
2023-03-14T04:24:57.941Z,11.35
2023-03-14T04:27:19.842Z,11.30
2023-03-14T04:29:43.994Z,11.28
2023-03-14T04:32:07.403Z,11.27
2023-03-14T04:34:30.201Z,11.25
2023-03-14T04:36:53.159Z,11.23
2023-03-14T04:39:20.926Z,11.20
2023-03-14T04:41:51.575Z,11.18
2023-03-14T04:44:13.593Z,11.16
2023-03-14T04:46:35.306Z,11.12
2023-03-14T04:48:59.573Z,11.11
2023-03-14T04:51:23.846Z,11.07
2023-03-14T04:53:45.496Z,11.05
2023-03-14T04:56:09.511Z,10.99
2023-03-14T04:58:34.984Z,10.99
2023-03-14T05:01:07.039Z,11.00
2023-03-14T05:03:47.282Z,10.98
2023-03-14T05:06:27.945Z,10.97
2023-03-14T05:09:01.991Z,10.94
2023-03-14T05:11:33.619Z,10.93
2023-03-14T05:13:56.048Z,10.91
2023-03-14T05:16:36.565Z,10.91
2023-03-14T05:19:11.654Z,10.93
2023-03-14T05:22:00.564Z,10.87
2023-03-14T05:24:22.121Z,10.81
2023-03-14T05:27:09.798Z,10.79
2023-03-14T05:29:41.262Z,10.73
2023-03-14T05:32:38.359Z,10.67
2023-03-14T05:35:32.625Z,10.65
2023-03-14T05:38:12.890Z,10.59
2023-03-14T05:40:52.833Z,10.56
2023-03-14T05:43:32.976Z,10.56
2023-03-14T05:46:03.542Z,10.51
2023-03-14T05:48:47.675Z,10.52
2023-03-14T05:51:23.115Z,10.46
2023-03-14T05:54:07.422Z,10.45
2023-03-14T05:56:38.102Z,10.43
2023-03-14T05:59:19.352Z,10.40
2023-03-14T06:01:55.421Z,10.38
2023-03-14T06:04:20.007Z,10.37
2023-03-14T06:06:46.460Z,10.35
2023-03-14T06:09:08.307Z,10.34
2023-03-14T06:11:33.082Z,10.37
2023-03-14T06:13:55.639Z,10.35
2023-03-14T06:16:17.283Z,10.35
2023-03-14T06:18:38.953Z,10.38
2023-03-14T06:21:03.235Z,10.41
2023-03-14T06:23:27.040Z,10.45
2023-03-14T06:25:49.516Z,10.45
2023-03-14T06:28:11.154Z,10.45
2023-03-14T06:30:33.314Z,10.47
2023-03-14T06:32:56.414Z,10.49
2023-03-14T06:35:19.247Z,10.56
2023-03-14T06:37:42.192Z,10.61
2023-03-14T06:40:06.229Z,10.64
2023-03-14T06:42:51.124Z,10.68
2023-03-14T06:45:14.948Z,10.71
2023-03-14T06:47:37.044Z,10.76
2023-03-14T06:49:58.713Z,10.73
2023-03-14T06:52:20.494Z,10.76
2023-03-14T06:54:42.389Z,10.81
2023-03-14T06:57:04.154Z,10.84
2023-03-14T06:59:26.800Z,10.85
2023-03-14T07:01:49.343Z,10.87
2023-03-14T07:04:11.875Z,10.87
2023-03-14T07:06:38.285Z,10.87
2023-03-14T07:09:02.300Z,10.89
2023-03-14T07:11:25.359Z,10.93
2023-03-14T07:13:47.180Z,10.98
2023-03-14T07:16:09.792Z,11.04
2023-03-14T07:18:33.155Z,11.02
2023-03-14T07:20:56.619Z,11.05
2023-03-14T07:23:19.180Z,11.11
2023-03-14T07:25:47.022Z,11.12
2023-03-14T07:28:11.019Z,11.14
2023-03-14T07:30:35.314Z,11.14
2023-03-14T07:32:59.859Z,11.15
2023-03-14T07:35:21.578Z,11.13
2023-03-14T07:37:43.217Z,11.14
2023-03-14T07:40:08.294Z,11.12
2023-03-14T07:42:31.253Z,11.10
2023-03-14T07:45:14.084Z,11.05
2023-03-14T07:47:35.715Z,10.80
2023-03-14T07:49:57.316Z,10.37
2023-03-14T07:52:18.945Z,10.06
2023-03-14T07:54:40.567Z,9.85
2023-03-14T07:57:02.767Z,9.72
2023-03-14T07:59:24.564Z,9.63
2023-03-14T08:01:46.202Z,9.54
2023-03-14T08:04:08.709Z,9.47
2023-03-14T08:06:30.379Z,9.39
2023-03-14T08:08:52.016Z,9.34
2023-03-14T08:11:13.727Z,9.24
2023-03-14T08:13:36.902Z,9.16
2023-03-14T08:15:58.593Z,9.10
2023-03-14T08:18:20.306Z,9.06
2023-03-14T08:20:41.930Z,9.03
2023-03-14T08:23:03.609Z,8.99
2023-03-14T08:25:26.703Z,8.99
2023-03-14T08:27:48.444Z,8.99
2023-03-14T08:30:17.085Z,8.96
2023-03-14T08:32:39.765Z,8.98
2023-03-14T08:35:01.650Z,9.00
2023-03-14T08:37:27.117Z,9.01
2023-03-14T08:39:48.925Z,9.07
2023-03-14T08:42:10.562Z,9.16
2023-03-14T08:44:32.234Z,9.21
2023-03-14T08:46:53.948Z,9.21
2023-03-14T08:49:16.629Z,9.23
2023-03-14T08:51:38.281Z,9.26
2023-03-14T08:53:59.979Z,9.28
2023-03-14T08:56:22.588Z,9.30
2023-03-14T08:58:45.474Z,9.34
2023-03-14T09:01:10.083Z,9.30
2023-03-14T09:03:31.882Z,9.29
2023-03-14T09:05:53.579Z,9.28
2023-03-14T09:08:15.266Z,9.27
2023-03-14T09:10:39.519Z,9.19
2023-03-14T09:13:01.260Z,9.14
2023-03-14T09:15:22.872Z,9.13
2023-03-14T09:17:45.345Z,9.07
2023-03-14T09:20:08.334Z,8.99
2023-03-14T09:22:30.028Z,8.86
2023-03-14T09:24:51.685Z,8.66
2023-03-14T09:27:13.414Z,8.46
2023-03-14T09:29:35.450Z,8.27
2023-03-14T09:32:00.008Z,8.13
2023-03-14T09:34:21.751Z,8.06
2023-03-14T09:36:45.290Z,8.01
2023-03-14T09:39:07.782Z,8.00
2023-03-14T09:41:35.526Z,7.96
2023-03-14T09:44:19.705Z,7.97
2023-03-14T09:46:46.130Z,7.93
2023-03-14T09:49:35.328Z,7.91
2023-03-14T09:52:04.114Z,7.96
2023-03-14T09:54:52.220Z,8.08
2023-03-14T09:57:19.320Z,8.23
2023-03-14T09:59:45.826Z,8.38
2023-03-14T10:02:21.972Z,8.45
2023-03-14T10:04:47.276Z,8.46
2023-03-14T10:07:16.670Z,8.51
2023-03-14T10:09:38.646Z,8.48
2023-03-14T10:12:08.950Z,8.48
2023-03-14T10:14:37.330Z,8.49
2023-03-14T10:17:13.455Z,8.40
2023-03-14T10:19:36.697Z,8.35
2023-03-14T10:22:03.721Z,8.31
2023-03-14T10:24:35.980Z,8.26
2023-03-14T10:27:06.943Z,8.24
2023-03-14T10:29:29.859Z,8.24
2023-03-14T10:32:01.972Z,8.26
2023-03-14T10:34:31.306Z,8.30
2023-03-14T10:37:07.765Z,8.34
2023-03-14T10:39:46.144Z,8.34
2023-03-14T10:42:21.781Z,8.42
2023-03-14T10:44:44.870Z,8.48
2023-03-14T10:47:07.023Z,8.49
2023-03-14T10:49:32.436Z,8.50
2023-03-14T10:51:54.140Z,8.55
2023-03-14T10:54:24.928Z,8.63
2023-03-14T10:56:59.730Z,8.74
2023-03-14T10:59:21.275Z,8.84
2023-03-14T11:01:54.977Z,8.91
2023-03-14T11:04:49.367Z,8.95
2023-03-14T11:07:40.108Z,8.98
2023-03-14T11:10:25.212Z,8.99
2023-03-14T11:13:07.825Z,9.09
2023-03-14T11:15:46.860Z,9.23
2023-03-14T11:18:25.454Z,9.27
2023-03-14T11:21:11.911Z,9.28
2023-03-14T11:24:14.809Z,9.25
2023-03-14T11:26:58.594Z,9.10
2023-03-14T11:29:41.092Z,8.53
2023-03-14T11:32:19.701Z,8.06
2023-03-14T11:34:55.127Z,7.76
2023-03-14T11:37:34.969Z,7.65
2023-03-14T11:40:26.246Z,7.65
2023-03-14T11:43:01.048Z,7.68
2023-03-14T11:45:37.717Z,7.75
2023-03-14T11:48:16.407Z,7.81
2023-03-14T11:50:43.987Z,7.94
2023-03-14T11:53:15.991Z,8.11
2023-03-14T11:55:41.651Z,8.27
2023-03-14T11:58:22.215Z,8.33
2023-03-14T12:00:48.053Z,8.34
2023-03-14T12:03:12.515Z,8.32
2023-03-14T12:05:52.762Z,8.26
2023-03-14T12:08:27.081Z,8.12
2023-03-14T12:11:02.511Z,8.06
2023-03-14T12:13:33.419Z,8.06
2023-03-14T12:16:02.359Z,8.15
2023-03-14T12:18:31.846Z,8.19
2023-03-14T12:21:04.444Z,8.29
2023-03-14T12:23:36.151Z,8.39
2023-03-14T12:26:44.310Z,8.47
2023-03-14T12:29:10.019Z,8.55
2023-03-14T12:31:31.659Z,8.64
2023-03-14T12:34:09.847Z,8.66
2023-03-14T12:36:52.602Z,8.76
2023-03-14T12:39:23.540Z,8.96
2023-03-14T12:41:53.344Z,9.05
2023-03-14T12:44:30.340Z,9.21
2023-03-14T12:46:52.066Z,9.37
2023-03-14T12:49:13.668Z,9.54
2023-03-14T12:51:40.058Z,9.72
2023-03-14T12:54:40.285Z,9.85
2023-03-14T12:57:29.187Z,9.85
2023-03-14T13:00:00.242Z,9.84
2023-03-14T13:02:30.236Z,9.82
2023-03-14T13:05:03.051Z,9.83
2023-03-14T13:07:44.227Z,9.92
2023-03-14T13:12:43.788Z,9.93
2023-03-14T13:15:25.109Z,9.90
2023-03-14T13:17:50.272Z,9.71
2023-03-14T13:20:35.235Z,9.71
2023-03-14T13:22:56.977Z,9.76
2023-03-14T13:25:21.901Z,9.78
2023-03-14T13:27:43.946Z,9.76
2023-03-14T13:30:22.286Z,9.82
2023-03-14T13:32:48.359Z,9.83
2023-03-14T13:35:21.047Z,9.84
2023-03-14T13:37:42.780Z,9.88
2023-03-14T13:40:05.105Z,9.94
2023-03-14T13:42:30.855Z,10.00
2023-03-14T13:44:56.352Z,10.04
2023-03-14T13:47:22.325Z,10.15
2023-03-14T13:49:45.943Z,10.27
2023-03-14T13:52:32.770Z,10.27
2023-03-14T13:55:01.318Z,10.26
2023-03-14T13:57:23.895Z,10.29
2023-03-14T14:00:02.112Z,10.47
2023-03-14T14:02:27.989Z,10.52
2023-03-14T14:04:49.658Z,10.44
2023-03-14T14:07:22.051Z,10.46
2023-03-14T14:09:49.760Z,10.36
2023-03-14T14:12:22.600Z,10.39
2023-03-14T14:14:58.242Z,10.43
2023-03-14T14:17:28.142Z,10.26
2023-03-14T14:19:51.761Z,10.14
2023-03-14T14:22:13.927Z,10.11
2023-03-14T14:24:38.598Z,10.07
2023-03-14T14:27:36.899Z,10.04
2023-03-14T14:30:18.288Z,10.07
2023-03-14T14:32:41.531Z,10.03
2023-03-14T14:35:05.715Z,9.95
2023-03-14T14:37:42.592Z,9.91
2023-03-14T14:40:17.514Z,9.88
2023-03-14T14:42:42.644Z,9.89
2023-03-14T14:45:05.113Z,9.88
2023-03-14T14:47:29.538Z,9.96
2023-03-14T14:49:55.058Z,9.92
2023-03-14T14:52:20.820Z,9.93
2023-03-14T14:54:52.023Z,10.06
2023-03-14T14:57:20.943Z,10.03
2023-03-14T14:59:46.296Z,9.98
2023-03-14T15:02:45.209Z,9.96
2023-03-14T15:05:13.696Z,10.01
2023-03-14T15:07:35.342Z,10.02
2023-03-14T15:09:56.983Z,10.07
2023-03-14T15:12:18.644Z,10.11
2023-03-14T15:14:40.274Z,10.07
2023-03-14T15:17:02.099Z,9.94
2023-03-14T15:19:27.041Z,9.69
2023-03-14T15:21:48.678Z,9.51
2023-03-14T15:24:11.055Z,9.34
2023-03-14T15:26:32.721Z,9.20
2023-03-14T15:28:54.966Z,9.12
2023-03-14T15:31:18.968Z,9.07
2023-03-14T15:33:41.036Z,9.00
2023-03-14T15:36:03.236Z,8.89
2023-03-14T15:38:25.068Z,8.79
2023-03-14T15:40:46.701Z,8.72
2023-03-14T15:43:08.582Z,8.68
2023-03-14T15:45:31.312Z,8.69
2023-03-14T15:47:53.016Z,8.64
2023-03-14T15:50:14.595Z,8.57
2023-03-14T15:52:36.451Z,8.46
2023-03-14T15:54:58.114Z,8.36
2023-03-14T15:57:19.713Z,8.28
2023-03-14T15:59:41.561Z,8.20
2023-03-14T16:02:03.203Z,8.09
2023-03-14T16:04:24.845Z,8.01
2023-03-14T16:06:46.697Z,7.96
2023-03-14T16:09:08.533Z,7.93
2023-03-14T16:11:30.197Z,7.91
2023-03-14T16:13:51.831Z,7.87
2023-03-14T16:16:13.609Z,7.83
2023-03-14T16:18:39.467Z,7.83
2023-03-14T16:21:06.868Z,7.83
2023-03-14T16:23:30.477Z,7.76
2023-03-14T16:25:53.587Z,7.72
2023-03-14T16:28:15.294Z,7.70
2023-03-14T16:30:37.037Z,7.70
2023-03-14T16:33:02.105Z,7.68
2023-03-14T16:35:23.946Z,7.65
2023-03-14T16:37:45.555Z,7.63
2023-03-14T16:40:12.762Z,7.59
2023-03-14T16:42:34.870Z,7.56
2023-03-14T16:44:56.436Z,7.53
2023-03-14T16:47:18.065Z,7.52
2023-03-14T16:49:39.837Z,7.46
2023-03-14T16:52:01.487Z,7.40
2023-03-14T16:54:23.101Z,7.37
2023-03-14T16:56:45.324Z,7.33
2023-03-14T16:59:07.716Z,7.27
2023-03-14T17:01:29.482Z,7.25
2023-03-14T17:03:52.262Z,7.24
2023-03-14T17:06:24.229Z,7.23
2023-03-14T17:08:46.158Z,7.19
2023-03-14T17:11:08.821Z,7.18
2023-03-14T17:13:30.583Z,7.16
2023-03-14T17:15:58.674Z,7.16
2023-03-14T17:18:20.332Z,7.13
2023-03-14T17:20:42.207Z,7.14
2023-03-14T17:23:03.790Z,7.12
2023-03-14T17:25:25.411Z,7.11
2023-03-14T17:27:47.148Z,7.11
2023-03-14T17:30:10.794Z,7.08
2023-03-14T17:32:32.628Z,7.05
2023-03-14T17:34:54.637Z,7.07
2023-03-14T17:37:16.283Z,7.07
2023-03-14T17:39:39.474Z,7.08
2023-03-14T17:42:01.221Z,7.06
2023-03-14T17:44:22.922Z,7.05
2023-03-14T17:46:44.630Z,7.03
2023-03-14T17:49:06.307Z,7.00
2023-03-14T17:51:27.989Z,6.96
2023-03-14T17:53:49.657Z,6.95
2023-03-14T17:56:11.825Z,6.95
2023-03-14T17:58:36.589Z,6.94
2023-03-14T18:00:58.296Z,6.91
2023-03-14T18:03:19.940Z,6.88
2023-03-14T18:05:42.012Z,6.85
2023-03-14T18:08:03.596Z,6.81
2023-03-14T18:10:25.407Z,6.78
2023-03-14T18:12:47.832Z,6.72
2023-03-14T18:15:10.581Z,6.69
2023-03-14T18:17:32.262Z,6.62
2023-03-14T18:19:55.798Z,6.57
2023-03-14T18:22:17.507Z,6.55
2023-03-14T18:24:39.190Z,6.54
2023-03-14T18:27:00.858Z,6.50
2023-03-14T18:29:22.596Z,6.47
2023-03-14T18:31:45.064Z,6.44
2023-03-14T18:34:07.340Z,6.39
2023-03-14T18:36:29.229Z,6.36
2023-03-14T18:38:56.507Z,6.30
2023-03-14T18:41:23.301Z,6.28
2023-03-14T18:43:46.174Z,6.25
2023-03-14T18:46:07.861Z,6.23
2023-03-14T18:48:30.621Z,6.17
2023-03-14T18:50:52.263Z,6.16
2023-03-14T18:53:13.903Z,6.13
2023-03-14T18:55:35.623Z,6.09
2023-03-14T18:57:57.222Z,6.05
2023-03-14T19:00:20.275Z,6.03
2023-03-14T19:02:42.091Z,6.01
2023-03-14T19:05:04.069Z,6.00
2023-03-14T19:07:25.718Z,5.98
2023-03-14T19:09:47.471Z,5.94
2023-03-14T19:12:09.141Z,5.91
2023-03-14T19:14:30.730Z,5.90
2023-03-14T19:16:52.433Z,5.84
2023-03-14T19:19:14.405Z,5.82
2023-03-14T19:21:36.118Z,5.77
2023-03-14T19:23:57.963Z,5.73
2023-03-14T19:26:19.619Z,5.69
2023-03-14T19:28:41.284Z,5.63
2023-03-14T19:31:04.865Z,5.59
2023-03-14T19:33:27.113Z,5.54
2023-03-14T19:35:48.994Z,5.53
2023-03-14T19:38:12.313Z,5.52
2023-03-14T19:40:35.705Z,5.52
2023-03-14T19:42:57.422Z,5.51
2023-03-14T19:45:19.036Z,5.50
2023-03-14T19:47:40.695Z,5.47
2023-03-14T19:50:03.362Z,5.43
2023-03-14T19:52:25.063Z,5.35
2023-03-14T19:54:46.702Z,5.28
2023-03-14T19:57:08.649Z,5.21
2023-03-14T19:59:30.432Z,5.15
2023-03-14T20:01:52.591Z,5.06
2023-03-14T20:04:15.013Z,5.00
2023-03-14T20:06:36.942Z,4.93
2023-03-14T20:09:00.097Z,4.89
2023-03-14T20:11:21.817Z,4.87
2023-03-14T20:13:44.540Z,4.82
2023-03-14T20:16:10.546Z,4.78
2023-03-14T20:18:32.647Z,4.75
2023-03-14T20:20:54.193Z,4.71
2023-03-14T20:23:15.892Z,4.70
2023-03-14T20:25:37.817Z,4.67
2023-03-14T20:27:59.547Z,4.66
2023-03-14T20:30:22.826Z,4.64
2023-03-14T20:32:45.284Z,4.59
2023-03-14T20:35:10.283Z,4.56
2023-03-14T20:37:32.733Z,4.53
2023-03-14T20:39:54.488Z,4.50
2023-03-14T20:42:17.891Z,4.48
2023-03-14T20:44:39.707Z,4.46
2023-03-14T20:47:01.409Z,4.43
2023-03-14T20:49:23.075Z,4.40
2023-03-14T20:51:44.689Z,4.38
2023-03-14T20:54:09.056Z,4.36
2023-03-14T20:56:30.774Z,4.34
2023-03-14T20:58:52.465Z,4.33
2023-03-14T21:03:54.272Z,4.34
2023-03-14T21:06:15.886Z,4.34
2023-03-14T21:08:39.411Z,4.34
2023-03-14T21:11:01.042Z,4.38
2023-03-14T21:13:24.116Z,4.44
2023-03-14T21:15:46.056Z,4.49
2023-03-14T21:18:07.686Z,4.52
2023-03-14T21:20:29.200Z,4.56
2023-03-14T21:22:50.784Z,4.60
2023-03-14T21:25:12.446Z,4.63
2023-03-14T21:27:34.121Z,4.70
2023-03-14T21:29:57.341Z,4.70
2023-03-14T21:32:20.012Z,4.78
2023-03-14T21:34:41.602Z,4.82
2023-03-14T21:37:03.678Z,4.87
2023-03-14T21:39:25.343Z,4.90
2023-03-14T21:41:46.984Z,4.91
2023-03-14T21:44:08.594Z,4.95
2023-03-14T21:46:30.699Z,4.94
2023-03-14T21:48:53.956Z,4.93
2023-03-14T21:51:15.504Z,4.93
2023-03-14T21:53:38.798Z,4.96
2023-03-14T21:56:00.975Z,4.95
2023-03-14T21:58:23.884Z,4.94
2023-03-14T22:00:49.169Z,4.98
2023-03-14T22:03:14.065Z,4.99
2023-03-14T22:05:35.742Z,5.01
2023-03-14T22:07:57.579Z,5.06
2023-03-14T22:10:19.614Z,5.08
2023-03-14T22:12:41.355Z,5.03
2023-03-14T22:15:05.288Z,5.00
2023-03-14T22:17:27.901Z,4.96
2023-03-14T22:19:49.493Z,4.92
2023-03-14T22:22:11.250Z,4.89
2023-03-14T22:24:33.001Z,4.91
2023-03-14T22:26:55.566Z,4.92
2023-03-14T22:29:17.630Z,4.92
2023-03-14T22:31:39.318Z,4.94
2023-03-14T22:34:00.888Z,4.96
2023-03-14T22:36:22.762Z,4.99
2023-03-14T22:38:44.316Z,5.02
2023-03-14T22:41:06.690Z,5.01
2023-03-14T22:43:30.549Z,5.00
2023-03-14T22:46:02.923Z,4.97
2023-03-14T22:48:24.599Z,4.92
2023-03-14T22:50:46.146Z,4.91
2023-03-14T22:53:07.865Z,4.88
2023-03-14T22:55:29.442Z,4.96
2023-03-14T22:57:52.814Z,4.96
2023-03-14T23:00:16.754Z,4.97
2023-03-14T23:02:40.398Z,4.91
2023-03-14T23:05:02.124Z,4.83
2023-03-14T23:07:23.673Z,4.89
2023-03-14T23:09:45.245Z,4.88
2023-03-14T23:12:08.585Z,4.84
2023-03-14T23:14:30.618Z,4.84
2023-03-14T23:16:55.639Z,4.85
2023-03-14T23:19:17.519Z,4.82
2023-03-14T23:21:39.159Z,4.82
2023-03-14T23:24:05.563Z,4.77
2023-03-14T23:26:27.492Z,4.74
2023-03-14T23:28:50.692Z,4.71
2023-03-14T23:31:14.510Z,4.63
2023-03-14T23:33:37.590Z,4.58
2023-03-14T23:35:59.241Z,4.53
2023-03-14T23:38:27.097Z,4.46
2023-03-14T23:40:48.634Z,4.37
2023-03-14T23:43:10.172Z,4.31
2023-03-14T23:45:31.786Z,4.27
2023-03-14T23:47:53.406Z,4.22
2023-03-14T23:50:14.959Z,4.19
2023-03-14T23:52:36.658Z,4.12
2023-03-14T23:54:58.373Z,4.06
2023-03-14T23:57:19.909Z,3.99
2023-03-14T23:59:42.832Z,3.96
